2026/07/18

Sensor Date Temp./Hum.
h4-hermonville 18-07-2026 - 23:58 21.1°C / 54.5%
h2-hermonville 18-07-2026 - 23:54 22.8°C / 52%
h1-hermonville 18-07-2026 - 23:54 17.8°C / 66%
h3-hermonville 18-07-2026 - 23:50 19.8°C / 59%
h4-hermonville 18-07-2026 - 23:48 21.2°C / 54.5%
h2-hermonville 18-07-2026 - 23:44 22.9°C / 52.5%
h1-hermonville 18-07-2026 - 23:44 17.9°C / 65.5%
h3-hermonville 18-07-2026 - 23:40 19.9°C / 59%
h4-hermonville 18-07-2026 - 23:38 21.5°C / 54%
h2-hermonville 18-07-2026 - 23:34 22.9°C / 52.5%
h1-hermonville 18-07-2026 - 23:34 18°C / 64.5%
h3-hermonville 18-07-2026 - 23:30 20.1°C / 58.5%
h4-hermonville 18-07-2026 - 23:28 21.6°C / 53.5%
h2-hermonville 18-07-2026 - 23:24 23.4°C / 49.5%
h1-hermonville 18-07-2026 - 23:24 18.2°C / 64%
h3-hermonville 18-07-2026 - 23:20 20.3°C / 57%
h4-hermonville 18-07-2026 - 23:18 21.8°C / 53%
h2-hermonville 18-07-2026 - 23:14 23.4°C / 51.5%
h1-hermonville 18-07-2026 - 23:14 18.6°C / 63%
h3-hermonville 18-07-2026 - 23:10 20.4°C / 56.5%
h1-hermonville 18-07-2026 - 23:04 18.7°C / 62%
h3-hermonville 18-07-2026 - 23:00 20.6°C / 56.5%
h4-hermonville 18-07-2026 - 22:58 21.9°C / 52.5%
h2-hermonville 18-07-2026 - 22:54 24.1°C / 49.5%
h1-hermonville 18-07-2026 - 22:54 19°C / 61.5%
h3-hermonville 18-07-2026 - 22:50 20.8°C / 56%
h4-hermonville 18-07-2026 - 22:48 22.3°C / 52%
h2-hermonville 18-07-2026 - 22:44 23.9°C / 50.5%
h1-hermonville 18-07-2026 - 22:44 19.2°C / 61%
h3-hermonville 18-07-2026 - 22:40 20.9°C / 55.5%
h3-hermonville 18-07-2026 - 22:30 21.1°C / 56.5%
h2-hermonville 18-07-2026 - 22:24 24.4°C / 50.5%
h1-hermonville 18-07-2026 - 22:24 19.6°C / 62.5%
h3-hermonville 18-07-2026 - 22:20 21.4°C / 57%
h2-hermonville 18-07-2026 - 22:14 24.4°C / 51.5%
h1-hermonville 18-07-2026 - 22:14 19.7°C / 64%
h3-hermonville 18-07-2026 - 22:10 21.7°C / 57.5%
h4-hermonville 18-07-2026 - 22:08 22.9°C / 54%
h2-hermonville 18-07-2026 - 22:04 24.6°C / 51.5%
h1-hermonville 18-07-2026 - 22:04 20°C / 63%
h4-hermonville 18-07-2026 - 21:58 22.8°C / 54%
h2-hermonville 18-07-2026 - 21:54 25.1°C / 50%
h1-hermonville 18-07-2026 - 21:54 20.1°C / 63%
h3-hermonville 18-07-2026 - 21:50 21.9°C / 57.5%
h4-hermonville 18-07-2026 - 21:48 23°C / 54.5%
h2-hermonville 18-07-2026 - 21:44 25.3°C / 50%
h1-hermonville 18-07-2026 - 21:44 20.3°C / 62.5%
h3-hermonville 18-07-2026 - 21:40 22.1°C / 57%
h1-hermonville 18-07-2026 - 21:34 20.7°C / 62%
h3-hermonville 18-07-2026 - 21:30 22.3°C / 57%
h4-hermonville 18-07-2026 - 21:28 23.2°C / 54%
h2-hermonville 18-07-2026 - 21:24 25.4°C / 50%
h1-hermonville 18-07-2026 - 21:24 20.9°C / 61.5%
h3-hermonville 18-07-2026 - 21:20 22.6°C / 56.5%
h4-hermonville 18-07-2026 - 21:18 23.6°C / 53%
h2-hermonville 18-07-2026 - 21:14 25.4°C / 50.5%
h1-hermonville 18-07-2026 - 21:14 21.2°C / 61%
h3-hermonville 18-07-2026 - 21:10 22.8°C / 56%
h2-hermonville 18-07-2026 - 21:04 25.5°C / 51%
h1-hermonville 18-07-2026 - 21:04 21.5°C / 61%
h3-hermonville 18-07-2026 - 21:00 23.2°C / 56%
h4-hermonville 18-07-2026 - 20:58 23.9°C / 53.5%
h2-hermonville 18-07-2026 - 20:54 26.2°C / 49.5%
h1-hermonville 18-07-2026 - 20:54 21.8°C / 60.5%
h3-hermonville 18-07-2026 - 20:50 23.3°C / 55.5%
h4-hermonville 18-07-2026 - 20:48 24°C / 53%
h2-hermonville 18-07-2026 - 20:44 26.3°C / 48.5%
h1-hermonville 18-07-2026 - 20:44 21.9°C / 60%
h3-hermonville 18-07-2026 - 20:40 23.5°C / 55%
h4-hermonville 18-07-2026 - 20:38 24.2°C / 52.5%
h2-hermonville 18-07-2026 - 20:34 26.5°C / 49%
h1-hermonville 18-07-2026 - 20:34 22.1°C / 59.5%
h3-hermonville 18-07-2026 - 20:30 23.6°C / 54.5%
h4-hermonville 18-07-2026 - 20:28 24.3°C / 52%
h2-hermonville 18-07-2026 - 20:24 26.7°C / 48.5%
h1-hermonville 18-07-2026 - 20:24 22.6°C / 58%
h3-hermonville 18-07-2026 - 20:20 24.2°C / 54%
h4-hermonville 18-07-2026 - 20:18 24.7°C / 51.5%
h2-hermonville 18-07-2026 - 20:14 27°C / 47.5%
h1-hermonville 18-07-2026 - 20:14 23.1°C / 56.5%
h4-hermonville 18-07-2026 - 20:08 24.9°C / 50.5%
h2-hermonville 18-07-2026 - 20:04 27.4°C / 46.5%
h1-hermonville 18-07-2026 - 20:04 23.3°C / 56%
h3-hermonville 18-07-2026 - 20:00 24.5°C / 52.5%
h4-hermonville 18-07-2026 - 19:58 25°C / 50%
h2-hermonville 18-07-2026 - 19:54 28°C / 44.5%
h1-hermonville 18-07-2026 - 19:54 23.5°C / 55%
h3-hermonville 18-07-2026 - 19:50 24.7°C / 51%
h4-hermonville 18-07-2026 - 19:48 25°C / 49.5%
h2-hermonville 18-07-2026 - 19:44 29.3°C / 42.5%
h1-hermonville 18-07-2026 - 19:44 23.7°C / 54%
h3-hermonville 18-07-2026 - 19:40 25°C / 50.5%
h4-hermonville 18-07-2026 - 19:38 25.3°C / 49%
h2-hermonville 18-07-2026 - 19:34 29.6°C / 41.5%
h1-hermonville 18-07-2026 - 19:34 24.1°C / 54%
h3-hermonville 18-07-2026 - 19:30 25.3°C / 50%
h4-hermonville 18-07-2026 - 19:28 25.5°C / 49%
h2-hermonville 18-07-2026 - 19:24 29.9°C / 41%
h1-hermonville 18-07-2026 - 19:24 24.1°C / 52.5%
h3-hermonville 18-07-2026 - 19:20 25.4°C / 49%
h4-hermonville 18-07-2026 - 19:18 25.6°C / 48%
h2-hermonville 18-07-2026 - 19:14 30.4°C / 39.5%
h1-hermonville 18-07-2026 - 19:14 24.4°C / 51.5%
h3-hermonville 18-07-2026 - 19:10 25.5°C / 48.5%
h4-hermonville 18-07-2026 - 19:08 25.6°C / 48%
h2-hermonville 18-07-2026 - 19:04 30.1°C / 40.5%
h1-hermonville 18-07-2026 - 19:04 24.2°C / 52%
h3-hermonville 18-07-2026 - 19:00 25.7°C / 47.5%
h4-hermonville 18-07-2026 - 18:58 25.8°C / 47%
h1-hermonville 18-07-2026 - 18:54 24.4°C / 51.5%
h3-hermonville 18-07-2026 - 18:50 25.7°C / 48%
h4-hermonville 18-07-2026 - 18:48 25.9°C / 47%
h2-hermonville 18-07-2026 - 18:44 29.1°C / 42%
h1-hermonville 18-07-2026 - 18:44 24.6°C / 50.5%
h3-hermonville 18-07-2026 - 18:40 25.7°C / 47.5%
h4-hermonville 18-07-2026 - 18:38 25.9°C / 46.5%
h2-hermonville 18-07-2026 - 18:34 28.6°C / 43%
h1-hermonville 18-07-2026 - 18:34 24.8°C / 49.5%
h3-hermonville 18-07-2026 - 18:30 25.8°C / 47%
h4-hermonville 18-07-2026 - 18:28 25.9°C / 46%
h2-hermonville 18-07-2026 - 18:24 30.4°C / 39%
h1-hermonville 18-07-2026 - 18:24 25°C / 49%
h3-hermonville 18-07-2026 - 18:20 26.2°C / 45.5%
h4-hermonville 18-07-2026 - 18:18 26.3°C / 45.5%
h2-hermonville 18-07-2026 - 18:14 31.2°C / 38%
h1-hermonville 18-07-2026 - 18:14 25.2°C / 48.5%
h3-hermonville 18-07-2026 - 18:10 26.4°C / 45.5%
h4-hermonville 18-07-2026 - 18:08 26.3°C / 45.5%
h2-hermonville 18-07-2026 - 18:04 31°C / 38%
h1-hermonville 18-07-2026 - 18:04 25.3°C / 48.5%
h3-hermonville 18-07-2026 - 18:00 26.3°C / 46%
h4-hermonville 18-07-2026 - 17:58 26.4°C / 45.5%
h2-hermonville 18-07-2026 - 17:54 30°C / 40.5%
h1-hermonville 18-07-2026 - 17:54 25.3°C / 48.5%
h3-hermonville 18-07-2026 - 17:50 26.5°C / 45.5%
h4-hermonville 18-07-2026 - 17:48 26.6°C / 45%
h2-hermonville 18-07-2026 - 17:44 31°C / 38.5%
h1-hermonville 18-07-2026 - 17:44 25.6°C / 47.5%
h3-hermonville 18-07-2026 - 17:40 26.6°C / 45.5%
h4-hermonville 18-07-2026 - 17:38 26.6°C / 45%
h2-hermonville 18-07-2026 - 17:34 31°C / 38%
h1-hermonville 18-07-2026 - 17:34 25.6°C / 47.5%
h3-hermonville 18-07-2026 - 17:30 26.6°C / 45.5%
h4-hermonville 18-07-2026 - 17:28 26.6°C / 44.5%
h2-hermonville 18-07-2026 - 17:24 31.9°C / 37%
h1-hermonville 18-07-2026 - 17:24 25.8°C / 47.5%
h3-hermonville 18-07-2026 - 17:20 26.9°C / 45%
h4-hermonville 18-07-2026 - 17:18 26.7°C / 45.5%
h2-hermonville 18-07-2026 - 17:14 31.7°C / 37.5%
h1-hermonville 18-07-2026 - 17:14 25.7°C / 48.5%
h3-hermonville 18-07-2026 - 17:10 26.7°C / 45%
h4-hermonville 18-07-2026 - 17:08 26.6°C / 45.5%
h2-hermonville 18-07-2026 - 17:04 32.1°C / 37.5%
h1-hermonville 18-07-2026 - 17:04 25.7°C / 48%
h3-hermonville 18-07-2026 - 17:00 26.5°C / 45.5%
h4-hermonville 18-07-2026 - 16:58 26.6°C / 45.5%
h2-hermonville 18-07-2026 - 16:54 30.6°C / 40%
h1-hermonville 18-07-2026 - 16:54 25.3°C / 49.5%
h3-hermonville 18-07-2026 - 16:50 26.6°C / 46%
h2-hermonville 18-07-2026 - 16:44 30°C / 41%
h1-hermonville 18-07-2026 - 16:44 25.2°C / 50%
h3-hermonville 18-07-2026 - 16:40 26.7°C / 46.5%
h4-hermonville 18-07-2026 - 16:38 26.5°C / 45.5%
h2-hermonville 18-07-2026 - 16:34 28.9°C / 44%
h2-hermonville 18-07-2026 - 16:24 28.5°C / 44%
h3-hermonville 18-07-2026 - 16:20 27.1°C / 45%
h2-hermonville 18-07-2026 - 16:14 29.3°C / 43%
h3-hermonville 18-07-2026 - 16:10 27.1°C / 45.5%
h4-hermonville 18-07-2026 - 16:08 27.2°C / 45%
h2-hermonville 18-07-2026 - 16:04 28.4°C / 44.5%
h1-hermonville 18-07-2026 - 16:04 26°C / 48%
h3-hermonville 18-07-2026 - 16:00 26.6°C / 47%
h4-hermonville 18-07-2026 - 15:58 26.9°C / 45%
h2-hermonville 18-07-2026 - 15:54 28.1°C / 44.5%
h3-hermonville 18-07-2026 - 15:50 26.1°C / 47.5%
h2-hermonville 18-07-2026 - 15:44 27.3°C / 45.5%
h1-hermonville 18-07-2026 - 15:44 25.5°C / 48%
h3-hermonville 18-07-2026 - 15:40 25.8°C / 47%
h2-hermonville 18-07-2026 - 15:34 27.9°C / 44.5%
h1-hermonville 18-07-2026 - 15:34 25.6°C / 48%
h2-hermonville 18-07-2026 - 15:24 27.4°C / 44.5%
h3-hermonville 18-07-2026 - 15:21 26.3°C / 47.5%
h4-hermonville 18-07-2026 - 15:18 27.1°C / 44.5%
h2-hermonville 18-07-2026 - 15:14 27.3°C / 45.5%
h3-hermonville 18-07-2026 - 15:11 25.9°C / 47%
h2-hermonville 18-07-2026 - 15:04 27°C / 46.5%
h1-hermonville 18-07-2026 - 15:04 25.1°C / 49.5%
h3-hermonville 18-07-2026 - 15:01 26.5°C / 45.5%
h4-hermonville 18-07-2026 - 14:58 27.2°C / 43%
h2-hermonville 18-07-2026 - 14:54 27.8°C / 44%
h1-hermonville 18-07-2026 - 14:54 25.3°C / 48%
h3-hermonville 18-07-2026 - 14:51 26.6°C / 45%
h4-hermonville 18-07-2026 - 14:48 27.4°C / 42.5%
h2-hermonville 18-07-2026 - 14:44 27.7°C / 44%
h3-hermonville 18-07-2026 - 14:41 26.9°C / 44.5%
h4-hermonville 18-07-2026 - 14:38 27.7°C / 42%
h2-hermonville 18-07-2026 - 14:34 27.7°C / 43.5%
h1-hermonville 18-07-2026 - 14:34 25.4°C / 48%
h3-hermonville 18-07-2026 - 14:31 26.1°C / 45.5%
h4-hermonville 18-07-2026 - 14:28 27.4°C / 42.5%
h2-hermonville 18-07-2026 - 14:24 27.5°C / 45.5%
h1-hermonville 18-07-2026 - 14:24 25.2°C / 46.5%
h3-hermonville 18-07-2026 - 14:21 26.1°C / 45%
h4-hermonville 18-07-2026 - 14:18 27.3°C / 43%
h2-hermonville 18-07-2026 - 14:14 26.8°C / 48%
h1-hermonville 18-07-2026 - 14:14 24.9°C / 49%
h3-hermonville 18-07-2026 - 14:11 25.4°C / 47%
h4-hermonville 18-07-2026 - 14:08 27.2°C / 43%
h2-hermonville 18-07-2026 - 14:04 26.8°C / 45.5%
h3-hermonville 18-07-2026 - 14:01 26.2°C / 46.5%
h4-hermonville 18-07-2026 - 13:58 27.2°C / 43%
h2-hermonville 18-07-2026 - 13:54 26.1°C / 47%
h1-hermonville 18-07-2026 - 13:54 24.5°C / 51.5%
h3-hermonville 18-07-2026 - 13:51 25.5°C / 47%
h2-hermonville 18-07-2026 - 13:44 26.1°C / 48.5%
h1-hermonville 18-07-2026 - 13:44 24.2°C / 50.5%
h3-hermonville 18-07-2026 - 13:41 25.5°C / 47%
h4-hermonville 18-07-2026 - 13:38 26.9°C / 43%
h2-hermonville 18-07-2026 - 13:34 25.8°C / 49%
h1-hermonville 18-07-2026 - 13:34 24.2°C / 50%
h3-hermonville 18-07-2026 - 13:31 25.3°C / 47.5%
h4-hermonville 18-07-2026 - 13:28 27°C / 43%
h2-hermonville 18-07-2026 - 13:24 25.8°C / 49.5%
h1-hermonville 18-07-2026 - 13:24 23.9°C / 51%
h3-hermonville 18-07-2026 - 13:21 25.1°C / 47.5%
h4-hermonville 18-07-2026 - 13:18 27.1°C / 43%
h2-hermonville 18-07-2026 - 13:14 25.7°C / 49.5%
h1-hermonville 18-07-2026 - 13:14 23.9°C / 52%
h3-hermonville 18-07-2026 - 13:11 25.2°C / 48.5%
h4-hermonville 18-07-2026 - 13:08 27.4°C / 43%
h2-hermonville 18-07-2026 - 13:04 25.6°C / 50.5%
h1-hermonville 18-07-2026 - 13:04 23.9°C / 52%
h3-hermonville 18-07-2026 - 13:01 25.1°C / 50.5%
h4-hermonville 18-07-2026 - 12:58 28.1°C / 42%
h2-hermonville 18-07-2026 - 12:54 25.7°C / 50.5%
h1-hermonville 18-07-2026 - 12:54 23.9°C / 53%
h3-hermonville 18-07-2026 - 12:51 24.8°C / 50%
h4-hermonville 18-07-2026 - 12:48 28°C / 42%
h2-hermonville 18-07-2026 - 12:44 25.8°C / 51%
h1-hermonville 18-07-2026 - 12:44 23.6°C / 54.5%
h3-hermonville 18-07-2026 - 12:41 25°C / 50.5%
h4-hermonville 18-07-2026 - 12:38 28.1°C / 42.5%
h2-hermonville 18-07-2026 - 12:34 25.3°C / 51.5%
h1-hermonville 18-07-2026 - 12:34 23.3°C / 56%
h3-hermonville 18-07-2026 - 12:31 24.7°C / 51%
h2-hermonville 18-07-2026 - 12:24 25.1°C / 51.5%
h1-hermonville 18-07-2026 - 12:24 22.8°C / 55.5%
h3-hermonville 18-07-2026 - 12:21 24.7°C / 50.5%
h4-hermonville 18-07-2026 - 12:18 29.1°C / 39.5%
h2-hermonville 18-07-2026 - 12:14 24.8°C / 52%
h3-hermonville 18-07-2026 - 12:11 24.5°C / 51%
h4-hermonville 18-07-2026 - 12:08 30.6°C / 36.5%
h2-hermonville 18-07-2026 - 12:04 24.5°C / 53%
h1-hermonville 18-07-2026 - 12:04 22.6°C / 56.5%
h3-hermonville 18-07-2026 - 12:01 24.2°C / 51.5%
h4-hermonville 18-07-2026 - 11:58 32.8°C / 33.5%
h2-hermonville 18-07-2026 - 11:54 24.2°C / 53.5%
h1-hermonville 18-07-2026 - 11:54 22.3°C / 56.5%
h3-hermonville 18-07-2026 - 11:51 24.3°C / 52.5%
h4-hermonville 18-07-2026 - 11:48 32.9°C / 35%
h2-hermonville 18-07-2026 - 11:44 23.9°C / 56%
h1-hermonville 18-07-2026 - 11:44 22.4°C / 56.5%
h3-hermonville 18-07-2026 - 11:41 23.9°C / 53.5%
h4-hermonville 18-07-2026 - 11:38 32.7°C / 34%
h1-hermonville 18-07-2026 - 11:34 22.5°C / 56.5%
h3-hermonville 18-07-2026 - 11:31 23.8°C / 54%
h4-hermonville 18-07-2026 - 11:28 33.2°C / 34.5%
h2-hermonville 18-07-2026 - 11:24 22.9°C / 57%
h1-hermonville 18-07-2026 - 11:24 22.5°C / 58.5%
h3-hermonville 18-07-2026 - 11:21 23.5°C / 56%
h4-hermonville 18-07-2026 - 11:18 32.7°C / 36%
h2-hermonville 18-07-2026 - 11:14 22.9°C / 59%
h1-hermonville 18-07-2026 - 11:14 22.3°C / 59.5%
h3-hermonville 18-07-2026 - 11:11 23.6°C / 57%
h4-hermonville 18-07-2026 - 11:08 30°C / 40.5%
h2-hermonville 18-07-2026 - 11:04 22.7°C / 60.5%
h1-hermonville 18-07-2026 - 11:04 22.1°C / 62%
h3-hermonville 18-07-2026 - 11:01 23.3°C / 58%
h4-hermonville 18-07-2026 - 10:58 29.3°C / 41.5%
h2-hermonville 18-07-2026 - 10:54 22.7°C / 60%
h1-hermonville 18-07-2026 - 10:54 22.1°C / 61.5%
h3-hermonville 18-07-2026 - 10:51 22.9°C / 58.5%
h4-hermonville 18-07-2026 - 10:48 29°C / 41.5%
h1-hermonville 18-07-2026 - 10:44 21.6°C / 62.5%
h3-hermonville 18-07-2026 - 10:41 22.2°C / 61%
h4-hermonville 18-07-2026 - 10:38 29.9°C / 40%
h2-hermonville 18-07-2026 - 10:34 21.4°C / 64%
h1-hermonville 18-07-2026 - 10:34 21.5°C / 64%
h3-hermonville 18-07-2026 - 10:31 21.9°C / 62%
h4-hermonville 18-07-2026 - 10:28 30.3°C / 39.5%
h2-hermonville 18-07-2026 - 10:24 21.3°C / 63.5%
h1-hermonville 18-07-2026 - 10:24 20.7°C / 66.5%
h3-hermonville 18-07-2026 - 10:21 22.1°C / 62%
h4-hermonville 18-07-2026 - 10:18 31.9°C / 37%
h2-hermonville 18-07-2026 - 10:14 21°C / 66%
h1-hermonville 18-07-2026 - 10:14 20°C / 68.5%
h3-hermonville 18-07-2026 - 10:11 21.8°C / 62.5%
h4-hermonville 18-07-2026 - 10:08 31.2°C / 39%
h2-hermonville 18-07-2026 - 10:04 20.5°C / 67.5%
h1-hermonville 18-07-2026 - 10:04 19.8°C / 71%
h3-hermonville 18-07-2026 - 10:01 21.7°C / 64%
h4-hermonville 18-07-2026 - 09:58 29.9°C / 42.5%
h2-hermonville 18-07-2026 - 09:54 20.7°C / 68.5%
h1-hermonville 18-07-2026 - 09:54 19.4°C / 72.5%
h3-hermonville 18-07-2026 - 09:51 21.7°C / 64%
h4-hermonville 18-07-2026 - 09:48 28.8°C / 43%
h2-hermonville 18-07-2026 - 09:44 20.3°C / 69.5%
h1-hermonville 18-07-2026 - 09:44 19.2°C / 72.5%
h3-hermonville 18-07-2026 - 09:41 21.3°C / 65.5%
h4-hermonville 18-07-2026 - 09:38 29.8°C / 42%
h2-hermonville 18-07-2026 - 09:34 19.9°C / 71%
h1-hermonville 18-07-2026 - 09:34 18.5°C / 76%
h3-hermonville 18-07-2026 - 09:31 20.9°C / 67%
h4-hermonville 18-07-2026 - 09:28 29.5°C / 43%
h2-hermonville 18-07-2026 - 09:24 19.9°C / 71%
h1-hermonville 18-07-2026 - 09:24 18.1°C / 77.5%
h3-hermonville 18-07-2026 - 09:21 20.9°C / 66.5%
h4-hermonville 18-07-2026 - 09:18 28.5°C / 45%
h2-hermonville 18-07-2026 - 09:14 19.5°C / 72%
h1-hermonville 18-07-2026 - 09:14 18°C / 78%
h3-hermonville 18-07-2026 - 09:11 20.8°C / 67%
h4-hermonville 18-07-2026 - 09:08 27.6°C / 47%
h2-hermonville 18-07-2026 - 09:04 19.5°C / 72%
h1-hermonville 18-07-2026 - 09:04 17.8°C / 78%
h3-hermonville 18-07-2026 - 09:01 20.8°C / 66.5%
h4-hermonville 18-07-2026 - 08:58 26°C / 50.5%
h2-hermonville 18-07-2026 - 08:54 19.4°C / 71.5%
h1-hermonville 18-07-2026 - 08:54 17.7°C / 78.5%
h4-hermonville 18-07-2026 - 08:48 23.8°C / 56.5%
h2-hermonville 18-07-2026 - 08:44 19.3°C / 72%
h1-hermonville 18-07-2026 - 08:44 17.5°C / 79%
h4-hermonville 18-07-2026 - 08:38 22.9°C / 58.5%
h2-hermonville 18-07-2026 - 08:34 18.7°C / 74%
h3-hermonville 18-07-2026 - 08:31 19.5°C / 70%
h4-hermonville 18-07-2026 - 08:28 22.6°C / 59.5%
h2-hermonville 18-07-2026 - 08:24 18.5°C / 74.5%
h1-hermonville 18-07-2026 - 08:24 17.4°C / 79%
h3-hermonville 18-07-2026 - 08:21 19.4°C / 70.5%
h4-hermonville 18-07-2026 - 08:18 22.6°C / 59%
h2-hermonville 18-07-2026 - 08:14 18.3°C / 74.5%
h1-hermonville 18-07-2026 - 08:14 17°C / 80%
h3-hermonville 18-07-2026 - 08:11 19.4°C / 70%
h2-hermonville 18-07-2026 - 08:04 18.3°C / 74.5%
h1-hermonville 18-07-2026 - 08:04 16.9°C / 80%
h3-hermonville 18-07-2026 - 08:01 19.1°C / 70.5%
h2-hermonville 18-07-2026 - 07:54 18.5°C / 73.5%
h1-hermonville 18-07-2026 - 07:54 16.9°C / 79%
h4-hermonville 18-07-2026 - 07:48 20.8°C / 63.5%
h2-hermonville 18-07-2026 - 07:44 18.4°C / 73%
h1-hermonville 18-07-2026 - 07:44 16.9°C / 79.5%
h3-hermonville 18-07-2026 - 07:41 18.8°C / 70.5%
h4-hermonville 18-07-2026 - 07:38 20.9°C / 62.5%
h2-hermonville 18-07-2026 - 07:34 18.5°C / 72%
h1-hermonville 18-07-2026 - 07:34 16.7°C / 79.5%
h3-hermonville 18-07-2026 - 07:31 18.9°C / 70%
h4-hermonville 18-07-2026 - 07:28 20.6°C / 63%
h2-hermonville 18-07-2026 - 07:24 18.6°C / 71.5%
h1-hermonville 18-07-2026 - 07:24 16.7°C / 79.5%
h3-hermonville 18-07-2026 - 07:21 19.1°C / 69%
h4-hermonville 18-07-2026 - 07:18 20.7°C / 62%
h2-hermonville 18-07-2026 - 07:14 18.8°C / 70%
h1-hermonville 18-07-2026 - 07:14 16.5°C / 79.5%
h3-hermonville 18-07-2026 - 07:11 18.7°C / 69%
h4-hermonville 18-07-2026 - 07:08 20.7°C / 61.5%
h2-hermonville 18-07-2026 - 07:04 18.9°C / 69.5%
h1-hermonville 18-07-2026 - 07:04 16.4°C / 79%
h3-hermonville 18-07-2026 - 07:01 19°C / 68.5%
h4-hermonville 18-07-2026 - 06:58 20.6°C / 61.5%
h2-hermonville 18-07-2026 - 06:54 19°C / 69%
h1-hermonville 18-07-2026 - 06:54 16.3°C / 79%
h4-hermonville 18-07-2026 - 06:48 20.8°C / 60.5%
h2-hermonville 18-07-2026 - 06:44 18.5°C / 70%
h1-hermonville 18-07-2026 - 06:44 16.3°C / 78.5%
h3-hermonville 18-07-2026 - 06:41 18.3°C / 69.5%
h4-hermonville 18-07-2026 - 06:38 20.8°C / 61%
h2-hermonville 18-07-2026 - 06:34 18.2°C / 71%
h1-hermonville 18-07-2026 - 06:34 16.2°C / 78.5%
h3-hermonville 18-07-2026 - 06:31 18.5°C / 69%
h4-hermonville 18-07-2026 - 06:28 20.6°C / 61%
h2-hermonville 18-07-2026 - 06:24 18.2°C / 71.5%
h1-hermonville 18-07-2026 - 06:24 16.4°C / 78%
h3-hermonville 18-07-2026 - 06:21 18.6°C / 68.5%
h4-hermonville 18-07-2026 - 06:18 20.4°C / 61.5%
h2-hermonville 18-07-2026 - 06:14 18.1°C / 71%
h1-hermonville 18-07-2026 - 06:14 16.5°C / 77.5%
h3-hermonville 18-07-2026 - 06:11 18.8°C / 67.5%
h4-hermonville 18-07-2026 - 06:08 20.1°C / 62.5%
h2-hermonville 18-07-2026 - 06:04 18.2°C / 71%
h1-hermonville 18-07-2026 - 06:04 16.5°C / 77%
h3-hermonville 18-07-2026 - 06:01 19.4°C / 66%
h4-hermonville 18-07-2026 - 05:58 20°C / 63%
h2-hermonville 18-07-2026 - 05:54 18.3°C / 70.5%
h1-hermonville 18-07-2026 - 05:54 16.6°C / 77%
h3-hermonville 18-07-2026 - 05:51 19.7°C / 64.5%
h4-hermonville 18-07-2026 - 05:48 20.1°C / 62.5%
h2-hermonville 18-07-2026 - 05:44 18.4°C / 70%
h1-hermonville 18-07-2026 - 05:44 16.6°C / 76.5%
h3-hermonville 18-07-2026 - 05:41 19.8°C / 64.5%
h4-hermonville 18-07-2026 - 05:38 20.5°C / 61%
h2-hermonville 18-07-2026 - 05:34 18.5°C / 70%
h1-hermonville 18-07-2026 - 05:34 16.7°C / 76.5%
h3-hermonville 18-07-2026 - 05:31 19.8°C / 64.5%
h4-hermonville 18-07-2026 - 05:28 20.6°C / 61%
h2-hermonville 18-07-2026 - 05:24 18.2°C / 70.5%
h1-hermonville 18-07-2026 - 05:24 16.7°C / 76%
h3-hermonville 18-07-2026 - 05:21 19.9°C / 64%
h4-hermonville 18-07-2026 - 05:18 21.1°C / 59.5%
h2-hermonville 18-07-2026 - 05:14 18.4°C / 69.5%
h1-hermonville 18-07-2026 - 05:14 17°C / 74.5%
h3-hermonville 18-07-2026 - 05:11 19.7°C / 64%
h4-hermonville 18-07-2026 - 05:08 21.6°C / 57.5%
h2-hermonville 18-07-2026 - 05:04 18.8°C / 68%
h1-hermonville 18-07-2026 - 05:04 17.3°C / 73.5%
h3-hermonville 18-07-2026 - 05:01 20°C / 63%
h4-hermonville 18-07-2026 - 04:58 21.7°C / 57%
h2-hermonville 18-07-2026 - 04:54 19.4°C / 66%
h1-hermonville 18-07-2026 - 04:54 17.4°C / 72.5%
h3-hermonville 18-07-2026 - 04:51 20.1°C / 62.5%
h4-hermonville 18-07-2026 - 04:48 21.2°C / 58%
h2-hermonville 18-07-2026 - 04:44 19.6°C / 65%
h1-hermonville 18-07-2026 - 04:44 17.6°C / 71%
h3-hermonville 18-07-2026 - 04:41 20°C / 62.5%
h4-hermonville 18-07-2026 - 04:38 21.5°C / 57%
h2-hermonville 18-07-2026 - 04:34 19.6°C / 64%
h1-hermonville 18-07-2026 - 04:34 17.7°C / 70.5%
h3-hermonville 18-07-2026 - 04:31 19.7°C / 63.5%
h4-hermonville 18-07-2026 - 04:28 21.9°C / 56%
h2-hermonville 18-07-2026 - 04:24 19.9°C / 63.5%
h1-hermonville 18-07-2026 - 04:24 17.7°C / 70.5%
h3-hermonville 18-07-2026 - 04:21 20.2°C / 62%
h4-hermonville 18-07-2026 - 04:18 21.8°C / 56%
h2-hermonville 18-07-2026 - 04:14 20.2°C / 62.5%
h1-hermonville 18-07-2026 - 04:14 17.9°C / 70%
h3-hermonville 18-07-2026 - 04:11 20.3°C / 61.5%
h4-hermonville 18-07-2026 - 04:08 22°C / 56%
h2-hermonville 18-07-2026 - 04:04 20.3°C / 62%
h1-hermonville 18-07-2026 - 04:04 18.1°C / 69.5%
h3-hermonville 18-07-2026 - 04:01 20.3°C / 61.5%
h4-hermonville 18-07-2026 - 03:58 22.2°C / 55.5%
h2-hermonville 18-07-2026 - 03:54 20.9°C / 61.5%
h1-hermonville 18-07-2026 - 03:54 18.1°C / 69%
h3-hermonville 18-07-2026 - 03:51 20.5°C / 61%
h4-hermonville 18-07-2026 - 03:48 22.5°C / 54.5%
h2-hermonville 18-07-2026 - 03:44 21°C / 60.5%
h1-hermonville 18-07-2026 - 03:44 18.4°C / 68.5%
h3-hermonville 18-07-2026 - 03:41 20.8°C / 60%
h4-hermonville 18-07-2026 - 03:38 22.7°C / 53.5%
h2-hermonville 18-07-2026 - 03:34 21.7°C / 58%
h1-hermonville 18-07-2026 - 03:34 18.8°C / 67%
h3-hermonville 18-07-2026 - 03:31 21.2°C / 58.5%
h4-hermonville 18-07-2026 - 03:28 22.7°C / 53.5%
h2-hermonville 18-07-2026 - 03:24 21.8°C / 57%
h1-hermonville 18-07-2026 - 03:24 19.1°C / 65.5%
h3-hermonville 18-07-2026 - 03:21 21.4°C / 57.5%
h2-hermonville 18-07-2026 - 03:14 22°C / 57%
h1-hermonville 18-07-2026 - 03:14 19.4°C / 64.5%
h3-hermonville 18-07-2026 - 03:11 21.8°C / 57%
h4-hermonville 18-07-2026 - 03:08 22.9°C / 53.5%
h2-hermonville 18-07-2026 - 03:04 22.3°C / 56%
h1-hermonville 18-07-2026 - 03:04 19.6°C / 63.5%
h3-hermonville 18-07-2026 - 03:01 22°C / 56%
h4-hermonville 18-07-2026 - 02:58 23°C / 53%
h2-hermonville 18-07-2026 - 02:54 23°C / 54.5%
h1-hermonville 18-07-2026 - 02:54 19.8°C / 62.5%
h3-hermonville 18-07-2026 - 02:51 22.1°C / 56%
h4-hermonville 18-07-2026 - 02:48 23.1°C / 53%
h2-hermonville 18-07-2026 - 02:44 22.8°C / 54%
h1-hermonville 18-07-2026 - 02:44 20.2°C / 61.5%
h3-hermonville 18-07-2026 - 02:41 22.2°C / 55%
h4-hermonville 18-07-2026 - 02:38 23.1°C / 53%
h2-hermonville 18-07-2026 - 02:34 22.9°C / 54%
h1-hermonville 18-07-2026 - 02:34 20.5°C / 60.5%
h3-hermonville 18-07-2026 - 02:31 22.4°C / 54.5%
h2-hermonville 18-07-2026 - 02:24 23.2°C / 53.5%
h1-hermonville 18-07-2026 - 02:24 20.7°C / 59.5%
h3-hermonville 18-07-2026 - 02:21 22.4°C / 55%
h4-hermonville 18-07-2026 - 02:18 23.5°C / 52.5%
h2-hermonville 18-07-2026 - 02:14 23.7°C / 51.5%
h3-hermonville 18-07-2026 - 02:11 22.6°C / 54.5%
h4-hermonville 18-07-2026 - 02:08 23.5°C / 52.5%
h2-hermonville 18-07-2026 - 02:04 23.4°C / 54.5%
h1-hermonville 18-07-2026 - 02:04 21°C / 59%
h3-hermonville 18-07-2026 - 02:01 22.6°C / 54.5%
h4-hermonville 18-07-2026 - 01:58 23.5°C / 51.5%
h2-hermonville 18-07-2026 - 01:54 23.8°C / 52.5%
h1-hermonville 18-07-2026 - 01:54 21.2°C / 58.5%
h3-hermonville 18-07-2026 - 01:51 22.6°C / 54%
h4-hermonville 18-07-2026 - 01:48 23.7°C / 51%
h2-hermonville 18-07-2026 - 01:44 24.3°C / 52%
h1-hermonville 18-07-2026 - 01:44 21.3°C / 58.5%
h3-hermonville 18-07-2026 - 01:41 22.6°C / 55%
h4-hermonville 18-07-2026 - 01:38 23.9°C / 51%
h2-hermonville 18-07-2026 - 01:34 23.8°C / 53.5%
h1-hermonville 18-07-2026 - 01:34 21.3°C / 59%
h3-hermonville 18-07-2026 - 01:31 22.8°C / 55%
h4-hermonville 18-07-2026 - 01:28 23.8°C / 53%
h2-hermonville 18-07-2026 - 01:24 24.2°C / 55%
h3-hermonville 18-07-2026 - 01:21 22.8°C / 55.5%
h4-hermonville 18-07-2026 - 01:18 23.9°C / 53%
h2-hermonville 18-07-2026 - 01:14 24.4°C / 52.5%
h1-hermonville 18-07-2026 - 01:14 21.5°C / 59%
h3-hermonville 18-07-2026 - 01:11 22.9°C / 55.5%
h4-hermonville 18-07-2026 - 01:08 23.9°C / 53.5%
h2-hermonville 18-07-2026 - 01:04 24.2°C / 54.5%
h1-hermonville 18-07-2026 - 01:04 21.5°C / 59%
h3-hermonville 18-07-2026 - 01:01 23°C / 55%
h4-hermonville 18-07-2026 - 00:58 23.8°C / 53%
h2-hermonville 18-07-2026 - 00:54 24.3°C / 54.5%
h1-hermonville 18-07-2026 - 00:54 21.7°C / 59.5%
h3-hermonville 18-07-2026 - 00:51 23°C / 55.5%
h4-hermonville 18-07-2026 - 00:48 24°C / 53%
h2-hermonville 18-07-2026 - 00:44 24.3°C / 55%
h1-hermonville 18-07-2026 - 00:44 21.9°C / 59.5%
h3-hermonville 18-07-2026 - 00:41 23.2°C / 56%
h4-hermonville 18-07-2026 - 00:38 24.1°C / 53.5%
h3-hermonville 18-07-2026 - 00:31 23.3°C / 55.5%
h4-hermonville 18-07-2026 - 00:28 24.2°C / 53.5%
h2-hermonville 18-07-2026 - 00:24 25.1°C / 53.5%
h1-hermonville 18-07-2026 - 00:24 22.3°C / 59.5%
h3-hermonville 18-07-2026 - 00:21 23.3°C / 55.5%
h4-hermonville 18-07-2026 - 00:18 24.3°C / 53%
h2-hermonville 18-07-2026 - 00:14 25°C / 54%
h1-hermonville 18-07-2026 - 00:14 22.3°C / 58.5%
h3-hermonville 18-07-2026 - 00:11 23.6°C / 56%
h4-hermonville 18-07-2026 - 00:08 24.4°C / 53.5%
h2-hermonville 18-07-2026 - 00:04 25.2°C / 53.5%
h1-hermonville 18-07-2026 - 00:04 22.5°C / 59%
h3-hermonville 18-07-2026 - 00:01 23.6°C / 55.5%